Thomaston, Connecticut
Current Conditions -  °F | °C
As of 11:35 PM on Saturday 22 Nov 2014 (Local Time) from KOXC Reporting Station
Scattered Clouds Scattered Clouds  
Wind Chill: 34°   Ceiling: Unl
Heat Index: 39°   Visibility: 10mi
Dew Point: 18°   Wind: 7mph
Humidity: 42%   Direction: 250°WSW
Pressure: 30.16"   Gusts: NA
Location:  41.67°N, 73.07°W
Report Text: KOXC 230435Z 25006KT 10SM FEW070 SCT110 04/M08 A3016 RMK AO1
Loading
Personal Weather Stations






























Interactive Weather Map New forecast layout! Learn more

10-Day Weather Forecast

Advertisements
Track Severe Weather on mobile